createdAt,value
2023-05-17T00:01:13.442Z,102101.97
2023-05-17T00:04:18.629Z,102106.31
2023-05-17T00:07:22.168Z,102113.22
2023-05-17T00:10:25.925Z,102118.44
2023-05-17T00:13:29.569Z,102127.97
2023-05-17T00:16:33.282Z,102122.72
2023-05-17T00:19:38.416Z,102124.44
2023-05-17T00:22:43.322Z,102122.75
2023-05-17T00:25:47.031Z,102130.63
2023-05-17T00:28:50.604Z,102121.97
2023-05-17T00:31:54.188Z,102124.66
2023-05-17T00:34:59.206Z,102115.94
2023-05-17T00:38:02.779Z,102119.50
2023-05-17T00:41:06.900Z,102122.16
2023-05-17T00:44:10.505Z,102112.56
2023-05-17T00:47:14.306Z,102111.69
2023-05-17T00:50:19.708Z,102116.97
2023-05-17T00:53:24.033Z,102111.75
2023-05-17T00:56:27.888Z,102117.00
2023-05-17T00:59:32.621Z,102116.19
2023-05-17T01:02:36.269Z,102121.41
2023-05-17T01:05:41.738Z,102120.53
2023-05-17T01:08:45.985Z,102133.63
2023-05-17T01:12:04.772Z,102135.34
2023-05-17T01:15:16.163Z,102131.88
2023-05-17T01:18:29.529Z,102134.50
2023-05-17T01:21:59.821Z,102133.59
2023-05-17T01:25:18.810Z,102130.16
2023-05-17T01:28:27.265Z,102132.75
2023-05-17T01:31:31.923Z,102131.00
2023-05-17T01:34:36.986Z,102135.34
2023-05-17T01:37:40.962Z,102135.34
2023-05-17T01:40:53.544Z,102146.66
2023-05-17T01:44:11.515Z,102154.44
2023-05-17T01:47:38.025Z,102160.56
2023-05-17T01:50:43.124Z,102161.41
2023-05-17T01:53:53.256Z,102169.28
2023-05-17T01:57:01.616Z,102172.75
2023-05-17T02:00:10.348Z,102168.44
2023-05-17T02:03:20.212Z,102166.69
2023-05-17T02:06:23.853Z,102172.78
2023-05-17T02:09:27.388Z,102177.13
2023-05-17T02:12:30.961Z,102175.41
2023-05-17T02:15:35.947Z,102168.44
2023-05-17T02:18:40.526Z,102184.94
2023-05-17T02:21:44.179Z,102182.34
2023-05-17T02:24:49.042Z,102190.19
2023-05-17T02:27:53.661Z,102194.53
2023-05-17T02:30:58.646Z,102190.19
2023-05-17T02:34:02.210Z,102188.44
2023-05-17T02:37:07.250Z,102182.34
2023-05-17T02:40:12.004Z,102198.03
2023-05-17T02:43:15.814Z,102202.34
2023-05-17T02:46:21.523Z,102205.84
2023-05-17T02:49:25.101Z,102209.34
2023-05-17T02:52:28.751Z,102207.59
2023-05-17T02:55:32.340Z,102213.69
2023-05-17T02:58:35.930Z,102216.28
2023-05-17T03:01:40.915Z,102218.03
2023-05-17T03:04:44.759Z,102222.38
2023-05-17T03:07:48.468Z,102223.25
2023-05-17T03:10:52.376Z,102229.28
2023-05-17T03:13:55.960Z,102231.91
2023-05-17T03:17:00.988Z,102235.38
2023-05-17T03:20:04.868Z,102235.41
2023-05-17T03:23:08.530Z,102242.34
2023-05-17T03:26:12.165Z,102244.94
2023-05-17T03:29:15.792Z,102244.94
2023-05-17T03:32:20.791Z,102250.16
2023-05-17T03:35:24.513Z,102253.63
2023-05-17T03:38:28.118Z,102254.53
2023-05-17T03:41:32.525Z,102258.03
2023-05-17T03:44:36.136Z,102256.28
2023-05-17T03:47:43.245Z,102264.97
2023-05-17T03:50:47.035Z,102264.13
2023-05-17T03:53:58.599Z,102274.56
2023-05-17T03:57:02.210Z,102282.38
2023-05-17T04:00:10.614Z,102276.25
2023-05-17T04:03:16.951Z,102284.09
2023-05-17T04:06:22.221Z,102283.28
2023-05-17T04:09:25.874Z,102291.09
2023-05-17T04:12:29.550Z,102296.31
2023-05-17T04:15:33.124Z,102293.72
2023-05-17T04:18:39.512Z,102290.16
2023-05-17T04:21:43.191Z,102300.59
2023-05-17T04:24:46.759Z,102293.66
2023-05-17T04:27:50.954Z,102297.13
2023-05-17T04:30:54.600Z,102303.19
2023-05-17T04:33:59.558Z,102308.44
2023-05-17T04:37:03.859Z,102314.50
2023-05-17T04:40:10.037Z,102314.59
2023-05-17T04:43:13.693Z,102318.94
2023-05-17T04:46:17.413Z,102327.63
2023-05-17T04:49:22.508Z,102329.38
2023-05-17T04:52:26.151Z,102332.03
2023-05-17T04:55:29.969Z,102341.59
2023-05-17T04:58:33.767Z,102348.59
2023-05-17T05:01:37.333Z,102345.13
2023-05-17T05:04:42.410Z,102356.47
2023-05-17T05:07:46.028Z,102362.53
2023-05-17T05:10:50.053Z,102365.19
2023-05-17T05:13:53.660Z,102363.44
2023-05-17T05:16:57.299Z,102381.72
2023-05-17T05:20:02.523Z,102373.03
2023-05-17T05:23:06.741Z,102376.50
2023-05-17T05:26:10.344Z,102380.88
2023-05-17T05:29:14.014Z,102382.59
2023-05-17T05:32:17.597Z,102390.44
2023-05-17T05:35:29.320Z,102390.44
2023-05-17T05:38:33.176Z,102400.03
2023-05-17T05:41:36.894Z,102403.53
2023-05-17T05:44:40.505Z,102413.09
2023-05-17T05:47:44.164Z,102407.88
2023-05-17T05:50:49.318Z,102410.53
2023-05-17T05:53:52.866Z,102420.16
2023-05-17T05:56:56.460Z,102422.72
2023-05-17T06:00:00.166Z,102434.06
2023-05-17T06:03:03.898Z,102437.59
2023-05-17T06:06:09.186Z,102441.06
2023-05-17T06:09:13.293Z,102448.03
2023-05-17T06:12:17.871Z,102449.81
2023-05-17T06:15:21.364Z,102449.78
2023-05-17T06:18:25.207Z,102441.91
2023-05-17T06:21:30.240Z,102450.63
2023-05-17T06:24:33.880Z,102447.94
2023-05-17T06:27:37.470Z,102453.22
2023-05-17T06:30:41.142Z,102457.59
2023-05-17T06:33:44.670Z,102462.00
2023-05-17T06:36:49.646Z,102471.59
2023-05-17T06:40:00.056Z,102475.06
2023-05-17T06:43:07.935Z,102474.09
2023-05-17T06:46:11.501Z,102485.53
2023-05-17T06:49:15.064Z,102490.78
2023-05-17T06:52:20.088Z,102489.88
2023-05-17T06:55:24.179Z,102500.41
2023-05-17T06:58:27.675Z,102502.13
2023-05-17T07:01:31.638Z,102507.38
2023-05-17T07:04:35.398Z,102520.44
2023-05-17T07:07:40.545Z,102530.03
2023-05-17T07:10:44.253Z,102531.75
2023-05-17T07:13:50.662Z,102523.06
2023-05-17T07:16:55.481Z,102524.81
2023-05-17T07:19:59.348Z,102529.16
2023-05-17T07:23:04.508Z,102528.31
2023-05-17T07:26:08.082Z,102516.81
2023-05-17T07:29:11.671Z,102521.91
2023-05-17T07:32:16.113Z,102528.16
2023-05-17T07:35:21.680Z,102529.09
2023-05-17T07:38:27.767Z,102539.63
2023-05-17T07:41:31.705Z,102549.25
2023-05-17T07:44:37.960Z,102544.00
2023-05-17T07:47:41.587Z,102548.38
2023-05-17T07:50:46.892Z,102569.31
2023-05-17T07:53:52.694Z,102570.16
2023-05-17T07:56:56.775Z,102545.63
2023-05-17T08:00:00.568Z,102552.53
2023-05-17T08:03:04.282Z,102559.53
2023-05-17T08:06:08.233Z,102546.25
2023-05-17T08:09:13.448Z,102546.81
2023-05-17T08:12:17.082Z,102554.91
2023-05-17T08:15:28.002Z,102573.63
2023-05-17T08:18:32.240Z,102577.97
2023-05-17T08:21:37.304Z,102570.03
2023-05-17T08:24:42.402Z,102570.06
2023-05-17T08:27:48.663Z,102572.66
2023-05-17T08:30:52.253Z,102570.00
2023-05-17T08:33:55.920Z,102569.94
2023-05-17T08:36:59.498Z,102581.34
2023-05-17T08:40:05.204Z,102594.59
2023-05-17T08:43:12.985Z,102602.47
2023-05-17T08:46:23.079Z,102598.09
2023-05-17T08:49:30.738Z,102612.94
2023-05-17T08:52:37.132Z,102605.91
2023-05-17T08:55:47.329Z,102600.31
2023-05-17T08:58:58.148Z,102604.78
2023-05-17T09:02:02.962Z,102607.66
2023-05-17T09:05:08.781Z,102610.16
2023-05-17T09:08:14.261Z,102615.94
2023-05-17T09:11:28.024Z,102631.63
2023-05-17T09:14:36.373Z,102625.84
2023-05-17T09:17:40.435Z,102630.09
2023-05-17T09:20:43.986Z,102636.34
2023-05-17T09:23:57.688Z,102636.19
2023-05-17T09:27:10.933Z,102637.91
2023-05-17T09:30:14.942Z,102631.75
2023-05-17T09:33:22.788Z,102644.03
2023-05-17T09:36:26.580Z,102633.69
2023-05-17T09:39:30.212Z,102644.84
2023-05-17T09:42:36.940Z,102646.06
2023-05-17T09:45:41.219Z,102645.94
2023-05-17T09:48:46.810Z,102653.94
2023-05-17T09:51:51.654Z,102651.34
2023-05-17T09:54:57.576Z,102642.47
2023-05-17T09:58:05.891Z,102636.00
2023-05-17T10:01:11.350Z,102637.16
2023-05-17T10:04:20.557Z,102638.00
2023-05-17T10:07:27.908Z,102646.41
2023-05-17T10:10:32.922Z,102639.56
2023-05-17T10:13:48.912Z,102648.44
2023-05-17T10:16:54.585Z,102630.88
2023-05-17T10:19:59.330Z,102644.13
2023-05-17T10:23:06.324Z,102641.38
2023-05-17T10:26:11.228Z,102643.31
2023-05-17T10:29:20.823Z,102651.19
2023-05-17T10:32:28.539Z,102652.19
2023-05-17T10:35:34.584Z,102643.28
2023-05-17T10:38:42.664Z,102638.69
2023-05-17T10:41:50.764Z,102639.34
2023-05-17T10:44:57.853Z,102633.97
2023-05-17T10:48:06.926Z,102629.66
2023-05-17T10:51:13.195Z,102657.25
2023-05-17T10:54:18.670Z,102659.84
2023-05-17T10:57:46.323Z,102656.38
2023-05-17T11:00:56.276Z,102670.53
2023-05-17T11:03:59.922Z,102666.97
2023-05-17T11:07:34.976Z,102654.50
2023-05-17T11:10:38.483Z,102645.81
2023-05-17T11:13:53.918Z,102644.75
2023-05-17T11:16:59.949Z,102650.69
2023-05-17T11:20:11.649Z,102641.09
2023-05-17T11:23:19.424Z,102663.38
2023-05-17T11:26:29.657Z,102643.84
2023-05-17T11:29:33.752Z,102640.22
2023-05-17T11:32:38.938Z,102641.31
2023-05-17T11:35:42.665Z,102646.41
2023-05-17T11:38:55.098Z,102643.84
2023-05-17T11:42:01.917Z,102651.59
2023-05-17T11:45:07.316Z,102660.16
2023-05-17T11:48:13.765Z,102663.84
2023-05-17T11:51:20.756Z,102664.72
2023-05-17T11:54:27.295Z,102658.84
2023-05-17T11:57:34.376Z,102672.59
2023-05-17T12:00:40.716Z,102677.88
2023-05-17T12:03:47.479Z,102677.22
2023-05-17T12:06:51.222Z,102675.38
2023-05-17T12:09:54.994Z,102674.38
2023-05-17T12:12:58.573Z,102671.66
2023-05-17T12:16:06.102Z,102668.81
2023-05-17T12:19:20.120Z,102665.00
2023-05-17T12:22:23.994Z,102658.78
2023-05-17T12:25:29.597Z,102666.53
2023-05-17T12:28:33.266Z,102654.34
2023-05-17T12:31:41.845Z,102660.59
2023-05-17T12:34:49.396Z,102660.47
2023-05-17T12:37:53.248Z,102671.03
2023-05-17T12:40:57.217Z,102671.69
2023-05-17T12:44:13.720Z,102661.97
2023-05-17T12:47:18.677Z,102670.13
2023-05-17T12:50:31.613Z,102666.59
2023-05-17T12:53:40.601Z,102677.38
2023-05-17T12:56:46.560Z,102690.50
2023-05-17T12:59:51.358Z,102695.75
2023-05-17T13:02:54.996Z,102687.94
2023-05-17T13:06:10.312Z,102689.72
2023-05-17T13:09:14.351Z,102689.44
2023-05-17T13:12:22.305Z,102697.44
2023-05-17T13:15:31.765Z,102682.38
2023-05-17T13:18:53.154Z,102690.34
2023-05-17T13:21:58.432Z,102686.78
2023-05-17T13:25:02.133Z,102688.47
2023-05-17T13:28:06.097Z,102691.16
2023-05-17T13:31:09.625Z,102683.28
2023-05-17T13:34:13.271Z,102694.75
2023-05-17T13:37:18.332Z,102688.53
2023-05-17T13:40:21.995Z,102675.34
2023-05-17T13:43:25.656Z,102679.56
2023-05-17T13:46:29.693Z,102692.06
2023-05-17T13:49:33.218Z,102686.81
2023-05-17T13:52:38.175Z,102683.44
2023-05-17T13:55:41.767Z,102695.72
2023-05-17T13:58:46.136Z,102688.63
2023-05-17T14:01:49.745Z,102687.44
2023-05-17T14:04:53.430Z,102689.38
2023-05-17T14:07:58.419Z,102681.44
2023-05-17T14:11:02.079Z,102683.91
2023-05-17T14:14:05.656Z,102687.66
2023-05-17T14:17:09.288Z,102691.25
2023-05-17T14:20:14.245Z,102698.91
2023-05-17T14:23:19.555Z,102701.66
2023-05-17T14:26:23.546Z,102700.09
2023-05-17T14:29:27.153Z,102700.88
2023-05-17T14:32:30.912Z,102700.81
2023-05-17T14:35:34.564Z,102698.34
2023-05-17T14:38:40.070Z,102701.75
2023-05-17T14:41:45.043Z,102703.47
2023-05-17T14:44:48.706Z,102698.22
2023-05-17T14:47:52.852Z,102705.25
2023-05-17T14:50:56.536Z,102696.50
2023-05-17T14:54:01.684Z,102708.03
2023-05-17T14:57:06.016Z,102699.16
2023-05-17T15:00:12.302Z,102705.09
2023-05-17T15:03:17.800Z,102705.94
2023-05-17T15:06:25.731Z,102714.91
2023-05-17T15:09:31.387Z,102706.06
2023-05-17T15:12:35.426Z,102704.41
2023-05-17T15:15:40.796Z,102707.03
2023-05-17T15:18:44.428Z,102703.56
2023-05-17T15:21:48.898Z,102710.56
2023-05-17T15:24:54.587Z,102713.91
2023-05-17T15:27:58.245Z,102719.31
2023-05-17T15:31:02.891Z,102699.16
2023-05-17T15:34:08.466Z,102703.41
2023-05-17T15:37:12.134Z,102707.81
2023-05-17T15:40:17.779Z,102707.00
2023-05-17T15:43:21.426Z,102720.22
2023-05-17T15:46:25.107Z,102721.13
2023-05-17T15:49:28.908Z,102711.50
2023-05-17T15:52:32.536Z,102711.47
2023-05-17T15:55:37.605Z,102713.25
2023-05-17T15:58:41.212Z,102719.38
2023-05-17T16:01:46.419Z,102722.88
2023-05-17T16:04:50.197Z,102726.38
2023-05-17T16:07:53.831Z,102717.66
2023-05-17T16:11:00.335Z,102717.66
2023-05-17T16:14:05.764Z,102724.66
2023-05-17T16:17:09.297Z,102723.75
2023-05-17T16:20:14.307Z,102724.69
2023-05-17T16:23:17.838Z,102737.78
2023-05-17T16:26:22.842Z,102742.19
2023-05-17T16:29:26.403Z,102740.44
2023-05-17T16:32:29.960Z,102744.78
2023-05-17T16:35:33.742Z,102742.13
2023-05-17T16:38:37.317Z,102737.78
2023-05-17T16:41:42.498Z,102744.81
2023-05-17T16:44:46.093Z,102739.53
2023-05-17T16:47:49.758Z,102744.81
2023-05-17T16:50:54.551Z,102740.44
2023-05-17T16:53:58.620Z,102746.53
2023-05-17T16:57:06.611Z,102750.03
2023-05-17T17:00:13.594Z,102754.41
2023-05-17T17:03:17.225Z,102751.81
2023-05-17T17:06:20.760Z,102756.19
2023-05-17T17:09:24.383Z,102758.78
2023-05-17T17:12:29.322Z,102757.03
2023-05-17T17:15:45.925Z,102760.53
2023-05-17T17:18:49.795Z,102757.91
2023-05-17T17:21:53.665Z,102772.75
2023-05-17T17:24:57.207Z,102775.41
2023-05-17T17:28:02.223Z,102771.88
2023-05-17T17:31:06.278Z,102769.25
2023-05-17T17:34:09.847Z,102780.59
2023-05-17T17:37:13.417Z,102777.06
2023-05-17T17:40:17.252Z,102777.94
2023-05-17T17:43:22.393Z,102779.69
2023-05-17T17:46:26.528Z,102779.72
2023-05-17T17:49:31.349Z,102783.19
2023-05-17T17:52:36.724Z,102791.88
2023-05-17T17:55:40.281Z,102791.03
2023-05-17T17:58:45.226Z,102781.41
2023-05-17T18:01:48.934Z,102785.72
2023-05-17T18:04:52.695Z,102789.22
2023-05-17T18:07:56.366Z,102809.28
2023-05-17T18:10:59.949Z,102806.69
2023-05-17T18:14:05.391Z,102805.75
2023-05-17T18:17:10.469Z,102801.38
2023-05-17T18:20:14.243Z,102795.28
2023-05-17T18:23:17.775Z,102811.88
2023-05-17T18:26:21.442Z,102812.78
2023-05-17T18:29:26.569Z,102815.41
2023-05-17T18:32:30.633Z,102824.06
2023-05-17T18:35:34.713Z,102823.13
2023-05-17T18:38:38.278Z,102828.31
2023-05-17T18:41:41.836Z,102828.31
2023-05-17T18:44:47.225Z,102822.22
2023-05-17T18:47:50.814Z,102823.19
2023-05-17T18:50:54.418Z,102822.22
2023-05-17T18:53:58.366Z,102824.81
2023-05-17T18:57:01.876Z,102822.19
2023-05-17T19:00:09.109Z,102823.03
2023-05-17T19:03:12.647Z,102823.03
2023-05-17T19:06:17.961Z,102824.75
2023-05-17T19:09:21.927Z,102822.19
2023-05-17T19:12:25.528Z,102822.16
2023-05-17T19:15:30.731Z,102825.72
2023-05-17T19:18:34.888Z,102828.28
2023-05-17T19:21:39.868Z,102829.13
2023-05-17T19:24:43.494Z,102819.59
2023-05-17T19:27:47.850Z,102829.06
2023-05-17T19:30:52.944Z,102830.91
2023-05-17T19:33:57.071Z,102832.63
2023-05-17T19:37:00.716Z,102835.22
2023-05-17T19:40:05.942Z,102836.03
2023-05-17T19:43:09.770Z,102831.69
2023-05-17T19:46:15.945Z,102836.97
2023-05-17T19:49:19.660Z,102841.31
2023-05-17T19:52:23.311Z,102837.81
2023-05-17T19:55:29.983Z,102840.34
2023-05-17T19:58:34.911Z,102846.41
2023-05-17T20:01:40.154Z,102854.16
2023-05-17T20:04:45.413Z,102848.09
2023-05-17T20:07:52.177Z,102842.81
2023-05-17T20:10:55.999Z,102844.50
2023-05-17T20:14:02.050Z,102844.47
2023-05-17T20:17:07.484Z,102838.34
2023-05-17T20:20:11.402Z,102850.59
2023-05-17T20:23:15.601Z,102855.81
2023-05-17T20:26:25.813Z,102840.06
2023-05-17T20:29:29.652Z,102854.03
2023-05-17T20:32:35.054Z,102850.41
2023-05-17T20:35:38.594Z,102850.38
2023-05-17T20:38:43.546Z,102851.13
2023-05-17T20:41:47.784Z,102852.91
2023-05-17T20:44:53.734Z,102850.38
2023-05-17T20:47:58.817Z,102848.44
2023-05-17T20:51:03.033Z,102846.69
2023-05-17T20:54:08.960Z,102845.91
2023-05-17T20:57:12.554Z,102850.16
2023-05-17T21:00:18.181Z,102851.94
2023-05-17T21:03:23.264Z,102852.66
2023-05-17T21:06:31.730Z,102855.31
2023-05-17T21:09:36.240Z,102851.84
2023-05-17T21:12:39.942Z,102855.31
2023-05-17T21:15:43.724Z,102841.44
2023-05-17T21:18:48.771Z,102843.09
2023-05-17T21:21:52.405Z,102843.13
2023-05-17T21:24:56.152Z,102853.41
2023-05-17T21:27:59.698Z,102839.53
2023-05-17T21:31:04.026Z,102844.88
2023-05-17T21:34:08.979Z,102848.31
2023-05-17T21:37:12.605Z,102849.88
2023-05-17T21:40:16.177Z,102852.34
2023-05-17T21:43:19.919Z,102864.47
2023-05-17T21:46:23.607Z,102859.25
2023-05-17T21:49:29.212Z,102861.88
2023-05-17T21:52:32.785Z,102860.22
2023-05-17T21:55:41.268Z,102860.88
2023-05-17T21:58:59.799Z,102857.41
2023-05-17T22:02:03.512Z,102861.81
2023-05-17T22:05:09.294Z,102864.41
2023-05-17T22:08:13.011Z,102855.59
2023-05-17T22:11:18.231Z,102857.25
2023-05-17T22:14:21.853Z,102864.91
2023-05-17T22:17:35.208Z,102857.81
2023-05-17T22:20:49.620Z,102854.34
2023-05-17T22:23:53.412Z,102854.22
2023-05-17T22:26:57.013Z,102852.50
2023-05-17T22:30:00.850Z,102858.47
2023-05-17T22:33:04.756Z,102852.47
2023-05-17T22:36:14.101Z,102855.75
2023-05-17T22:39:17.851Z,102852.88
2023-05-17T22:42:21.504Z,102858.75
2023-05-17T22:45:33.251Z,102856.13
2023-05-17T22:48:37.509Z,102869.78
2023-05-17T22:51:42.694Z,102866.41
2023-05-17T22:54:46.643Z,102867.78
2023-05-17T22:57:50.262Z,102867.06
2023-05-17T23:00:54.219Z,102891.38
2023-05-17T23:03:58.033Z,102888.56
2023-05-17T23:07:03.560Z,102889.56
2023-05-17T23:10:09.316Z,102890.41
2023-05-17T23:13:14.025Z,102885.16
2023-05-17T23:16:17.739Z,102888.44
2023-05-17T23:19:23.851Z,102886.41
2023-05-17T23:22:31.334Z,102886.47
2023-05-17T23:25:35.005Z,102888.28
2023-05-17T23:28:38.920Z,102893.88
2023-05-17T23:31:44.595Z,102888.78
2023-05-17T23:34:48.444Z,102896.56
2023-05-17T23:37:53.459Z,102900.94
2023-05-17T23:40:58.371Z,102893.13
2023-05-17T23:44:01.889Z,102888.91
2023-05-17T23:47:06.076Z,102890.63
2023-05-17T23:50:10.848Z,102887.19
2023-05-17T23:53:18.610Z,102885.31
2023-05-17T23:56:23.371Z,102885.88
2023-05-17T23:59:26.952Z,102891.47
